Terminal Aerodrome Forecast
Issued by NWS

Home | Current Version | Previous Version | Graphics & Text | Print | Product List | Glossary On
Versions: 1 2 3 4 5 6 7 8 9 10 11 12 13 14 15 16 17 18 19 20 21 22
000
FTUS43 KBIS 240900 AAA
TAFJMS
TAF AMD
KJMS 240958Z 2410/2506 15011KT 5SM BR SCT003
      TEMPO 2410/2413 2SM BR BKN003
     FM241300 15016G22KT 4SM -RA SCT003 OVC011
     FM241600 17021G27KT 5SM -RA SCT011 BKN060 OVC080
     FM242100 19018G25KT 4SM -RA BKN035 OVC050
     FM250100 24016G22KT 4SM -RA OVC025
     FM250300 26017G26KT 3SM -RASN BR OVC015=

USA.gov is the U.S. government's official web portal to all federal, state and local government web resources and services.